Time;durP1;ratioP1;P1;durP2;ratioP2;P2;SDS_P1;SDS_P2;PMS_P1;PMS_P2;Temp;Humidity;BMP_temperature;BMP_pressure;BME280_temperature;BME280_humidity;BME280_pressure;Samples;Min_cycle;Max_cycle;Signal;HPM_P1;HPM_P2
2021/07/14 00:00:33;;;;;;;2.90;2.70;;;17.20;99.80;;;;;;4978881;28;20480;-89
2021/07/14 00:03:01;;;;;;;5.20;3.17;;;17.20;99.80;;;;;;5007359;28;20850;-91
2021/07/14 00:05:32;;;;;;;3.00;2.60;;;17.20;99.80;;;;;;5009079;28;20476;-93
2021/07/14 00:08:00;;;;;;;3.00;2.80;;;17.20;99.80;;;;;;5007202;28;20488;-90
2021/07/14 00:10:31;;;;;;;4.33;3.13;;;17.20;99.80;;;;;;5010016;28;20556;-89
2021/07/14 00:13:08;;;;;;;3.60;3.20;;;17.20;99.80;;;;;;5008880;28;20477;-90
2021/07/14 00:24:03;;;;;;;8.50;3.07;;;17.20;99.80;;;;;;4997437;28;20499;-91
2021/07/14 00:26:31;;;;;;;8.80;3.67;;;17.20;99.80;;;;;;4997405;28;20489;-90
2021/07/14 00:29:01;;;;;;;5.00;2.83;;;17.20;99.80;;;;;;4993901;28;20476;-90
2021/07/14 00:31:29;;;;;;;2.93;2.60;;;17.20;99.80;;;;;;4995260;28;20559;-91
2021/07/14 00:33:57;;;;;;;2.97;2.70;;;17.20;99.80;;;;;;4995960;28;20988;-90
2021/07/14 00:36:26;;;;;;;4.20;3.10;;;17.20;99.80;;;;;;5000367;28;20480;-90
2021/07/14 00:38:54;;;;;;;6.37;2.90;;;17.20;99.80;;;;;;5004853;28;21191;-90
2021/07/14 00:41:22;;;;;;;5.37;2.93;;;17.20;99.80;;;;;;5005501;28;20475;-91
2021/07/14 00:43:50;;;;;;;3.57;3.20;;;17.20;99.80;;;;;;5001155;28;20479;-90
2021/07/14 00:46:21;;;;;;;3.60;3.30;;;17.20;99.80;;;;;;4994232;28;20481;-93
2021/07/14 00:48:50;;;;;;;3.13;2.83;;;17.20;99.80;;;;;;5004582;28;20477;-91
2021/07/14 00:51:23;;;;;;;4.40;3.13;;;17.20;99.80;;;;;;4998333;28;20480;-90
2021/07/14 00:53:58;;;;;;;3.63;2.93;;;17.20;99.80;;;;;;4999404;28;20485;-89
2021/07/14 00:56:26;;;;;;;3.40;3.10;;;17.20;99.80;;;;;;4988213;28;20525;-90
2021/07/14 00:58:56;;;;;;;3.83;3.40;;;17.20;99.80;;;;;;4981250;28;20867;-90
2021/07/14 01:01:37;;;;;;;4.10;3.70;;;17.20;99.80;;;;;;4988393;28;20527;-90
2021/07/14 01:04:12;;;;;;;8.57;3.40;;;17.20;99.80;;;;;;4987856;28;20558;-90
2021/07/14 01:06:49;;;;;;;3.27;2.97;;;17.20;99.80;;;;;;5004443;28;20475;-91
2021/07/14 01:09:29;;;;;;;4.63;3.20;;;17.20;99.80;;;;;;5002232;28;20467;-90
2021/07/14 01:12:11;;;;;;;3.73;2.80;;;17.20;99.80;;;;;;4999034;28;20486;-89
2021/07/14 01:14:46;;;;;;;8.50;3.17;;;17.20;99.80;;;;;;5001671;28;20484;-90
2021/07/14 01:17:19;;;;;;;4.27;3.20;;;17.20;99.80;;;;;;4997701;28;20479;-92
2021/07/14 01:20:33;;;;;;;4.53;3.77;;;17.20;99.80;;;;;;5008568;28;20475;-89
2021/07/14 01:23:08;;;;;;;3.53;3.23;;;17.20;99.80;;;;;;4966478;28;20473;-89
2021/07/14 01:26:00;;;;;;;5.60;3.73;;;17.20;99.80;;;;;;4961320;28;20469;-90
2021/07/14 01:28:37;;;;;;;4.80;2.70;;;17.20;99.80;;;;;;4986098;28;20474;-90
2021/07/14 01:31:07;;;;;;;4.37;3.30;;;17.20;99.80;;;;;;4983574;28;20578;-90
2021/07/14 01:33:39;;;;;;;5.57;3.20;;;17.20;99.80;;;;;;5004848;28;20625;-89
2021/07/14 01:36:12;;;;;;;4.93;3.83;;;17.10;99.80;;;;;;5002477;28;20472;-90
2021/07/14 01:38:42;;;;;;;3.30;2.97;;;17.10;99.80;;;;;;5003801;28;20467;-90
2021/07/14 01:41:15;;;;;;;5.33;3.30;;;17.10;99.80;;;;;;4999394;28;21280;-90
2021/07/14 01:43:47;;;;;;;5.40;3.70;;;17.10;99.80;;;;;;5000337;28;20468;-90
2021/07/14 01:46:17;;;;;;;4.43;3.00;;;17.10;99.80;;;;;;4999800;28;20483;-90
2021/07/14 01:48:47;;;;;;;4.10;3.80;;;17.10;99.80;;;;;;5009222;28;20839;-90
2021/07/14 01:51:16;;;;;;;4.00;3.60;;;17.10;99.80;;;;;;5011029;28;20983;-90
2021/07/14 01:53:46;;;;;;;4.33;3.10;;;17.10;99.80;;;;;;5011479;28;20476;-90
2021/07/14 01:56:15;;;;;;;6.97;3.90;;;17.10;99.80;;;;;;5002770;28;20472;-90
2021/07/14 01:58:50;;;;;;;4.33;3.80;;;17.10;99.80;;;;;;4999243;28;20482;-91
2021/07/14 02:01:21;;;;;;;5.10;3.53;;;17.10;99.80;;;;;;5004055;28;20472;-90
2021/07/14 02:04:30;;;;;;;4.10;3.70;;;17.10;99.80;;;;;;5015791;28;20514;-90
2021/07/14 02:06:48;;;;;;;3.93;3.17;;;17.10;99.80;;;;;;5015774;28;20455;-90
2021/07/14 02:09:19;;;;;;;3.47;3.27;;;17.00;99.80;;;;;;5016312;28;20966;-90
2021/07/14 02:11:52;;;;;;;3.67;3.37;;;17.10;99.80;;;;;;5015875;28;20457;-92
2021/07/14 02:14:27;;;;;;;5.13;3.70;;;17.00;99.80;;;;;;5015761;28;20420;-90
2021/07/14 02:17:13;;;;;;;5.53;3.67;;;17.00;99.80;;;;;;5015902;28;20451;-90
2021/07/14 02:20:01;;;;;;;5.37;3.47;;;17.10;99.80;;;;;;5015949;28;20834;-91
2021/07/14 02:22:30;;;;;;;6.43;3.30;;;17.10;99.80;;;;;;4994188;28;20488;-91
2021/07/14 02:24:58;;;;;;;3.20;2.90;;;17.10;99.80;;;;;;4994382;28;20840;-90
2021/07/14 02:27:27;;;;;;;3.50;3.13;;;17.10;99.80;;;;;;4999109;28;20483;-89
2021/07/14 02:29:56;;;;;;;3.53;3.30;;;17.00;99.80;;;;;;4996599;28;20550;-89
2021/07/14 02:32:25;;;;;;;4.13;3.27;;;17.10;99.80;;;;;;5001104;28;20854;-90
2021/07/14 02:34:55;;;;;;;5.93;3.37;;;17.10;99.80;;;;;;5009531;28;20478;-90
2021/07/14 02:37:31;;;;;;;9.80;3.00;;;17.00;99.80;;;;;;5011557;28;20471;-90
2021/07/14 02:40:04;;;;;;;6.70;3.27;;;17.00;99.80;;;;;;4994116;28;20567;-90
2021/07/14 02:42:34;;;;;;;6.73;3.23;;;17.10;99.80;;;;;;4985168;28;21028;-90
2021/07/14 02:45:07;;;;;;;4.43;3.00;;;17.10;99.80;;;;;;4986846;28;20912;-89
2021/07/14 02:47:41;;;;;;;3.83;3.53;;;17.00;99.80;;;;;;5001623;28;20502;-90
2021/07/14 02:50:19;;;;;;;6.57;3.10;;;17.00;99.80;;;;;;4995704;28;21162;-90
2021/07/14 02:52:55;;;;;;;4.60;3.10;;;17.00;99.80;;;;;;4997491;28;20547;-90
2021/07/14 02:55:29;;;;;;;3.50;3.17;;;17.00;99.80;;;;;;4987428;28;20977;-91
2021/07/14 02:58:00;;;;;;;2.87;2.67;;;17.00;99.80;;;;;;4995813;28;20476;-90
2021/07/14 03:00:31;;;;;;;7.37;3.80;;;17.00;99.80;;;;;;5003020;28;20480;-90
2021/07/14 03:03:05;;;;;;;3.67;3.37;;;17.00;99.80;;;;;;5005733;28;20504;-90
2021/07/14 03:05:37;;;;;;;4.60;3.40;;;17.00;99.80;;;;;;5010163;28;20474;-90
2021/07/14 03:08:13;;;;;;;4.10;3.70;;;17.00;99.80;;;;;;5009827;28;20471;-89
2021/07/14 03:10:43;;;;;;;5.00;3.70;;;17.00;99.80;;;;;;5008640;28;20474;-90
2021/07/14 03:13:11;;;;;;;3.40;3.17;;;17.00;99.80;;;;;;5002304;28;20559;-89
2021/07/14 03:15:42;;;;;;;8.43;3.43;;;16.90;99.80;;;;;;5005891;28;20476;-90
2021/07/14 03:18:14;;;;;;;4.23;3.73;;;16.90;99.80;;;;;;4996307;28;20835;-90
2021/07/14 03:20:44;;;;;;;3.50;3.07;;;16.90;99.80;;;;;;4980153;28;20485;-91
2021/07/14 03:23:14;;;;;;;5.77;3.73;;;16.90;99.80;;;;;;4945646;28;20535;-89
2021/07/14 03:25:42;;;;;;;3.57;3.27;;;16.90;99.80;;;;;;4987299;28;20560;-90
2021/07/14 03:28:11;;;;;;;6.33;3.43;;;16.90;99.80;;;;;;4971622;28;20512;-90
2021/07/14 03:30:41;;;;;;;3.57;3.23;;;16.90;99.80;;;;;;5000934;28;20479;-89
2021/07/14 03:33:09;;;;;;;4.10;3.70;;;16.90;99.80;;;;;;4998349;28;20978;-90
2021/07/14 03:35:39;;;;;;;3.93;3.47;;;16.90;99.80;;;;;;5010337;28;20471;-90
2021/07/14 03:38:10;;;;;;;3.33;3.03;;;16.80;99.80;;;;;;5010027;28;20484;-91
2021/07/14 03:40:40;;;;;;;9.70;3.30;;;16.80;99.80;;;;;;5007169;28;20475;-90
2021/07/14 03:43:18;;;;;;;3.50;3.20;;;16.80;99.80;;;;;;5007169;28;20535;-89
2021/07/14 03:45:49;;;;;;;4.17;3.77;;;16.90;99.80;;;;;;4998395;28;20481;-90
2021/07/14 03:48:18;;;;;;;3.87;3.57;;;16.90;99.80;;;;;;5006925;28;20473;-92
2021/07/14 03:50:50;;;;;;;3.43;3.13;;;16.90;99.80;;;;;;5000237;28;20491;-90
2021/07/14 03:53:21;;;;;;;5.13;3.73;;;16.90;99.80;;;;;;5004550;28;20456;-91
2021/07/14 03:55:56;;;;;;;11.03;3.67;;;16.90;99.80;;;;;;4996566;28;20499;-91
2021/07/14 03:58:25;;;;;;;3.60;3.30;;;16.80;99.80;;;;;;4988430;28;20545;-89
2021/07/14 04:00:55;;;;;;;3.43;3.13;;;16.90;99.80;;;;;;4970729;28;20487;-91
2021/07/14 04:03:26;;;;;;;4.20;3.50;;;16.90;99.80;;;;;;4986027;28;20468;-90
2021/07/14 04:05:59;;;;;;;4.83;3.53;;;16.90;99.80;;;;;;4997393;28;20476;-89
2021/07/14 04:08:35;;;;;;;4.47;3.40;;;16.90;99.80;;;;;;4979715;28;20476;-88
2021/07/14 04:11:03;;;;;;;4.53;3.43;;;16.90;99.80;;;;;;4959969;28;20870;-88
2021/07/14 04:13:30;;;;;;;4.93;3.30;;;16.90;99.80;;;;;;4995945;28;20506;-89
2021/07/14 04:16:00;;;;;;;4.40;3.70;;;17.00;99.80;;;;;;4969740;28;21093;-89
2021/07/14 04:18:28;;;;;;;4.10;3.70;;;17.00;99.80;;;;;;4990735;28;20539;-89
2021/07/14 04:20:56;;;;;;;6.30;4.43;;;17.00;99.80;;;;;;4999391;28;20480;-89
2021/07/14 04:23:24;;;;;;;5.13;3.97;;;17.00;99.80;;;;;;4994369;28;20823;-89
2021/07/14 04:25:53;;;;;;;5.57;3.53;;;17.00;99.80;;;;;;4985225;28;20480;-89
2021/07/14 04:28:21;;;;;;;3.87;3.57;;;17.00;99.80;;;;;;5001334;28;20526;-88
2021/07/14 04:30:49;;;;;;;4.40;3.50;;;17.00;99.80;;;;;;4998625;28;20483;-89
2021/07/14 04:33:18;;;;;;;4.03;3.53;;;17.00;99.80;;;;;;4996493;28;21002;-88
2021/07/14 04:35:47;;;;;;;4.30;3.90;;;17.00;99.80;;;;;;4978763;28;20492;-89
2021/07/14 04:38:16;;;;;;;5.40;3.60;;;17.10;99.80;;;;;;4991210;28;20976;-88
2021/07/14 04:40:44;;;;;;;4.30;3.40;;;17.10;99.80;;;;;;4995321;28;20476;-90
2021/07/14 04:43:14;;;;;;;6.07;4.30;;;17.20;99.80;;;;;;5007240;28;20480;-91
2021/07/14 04:45:42;;;;;;;3.53;3.23;;;17.20;99.80;;;;;;5000028;28;20463;-90
2021/07/14 04:48:11;;;;;;;4.07;3.63;;;17.20;99.80;;;;;;5014172;28;20475;-89
2021/07/14 04:50:41;;;;;;;4.00;3.70;;;17.10;99.80;;;;;;5008165;28;20523;-90
2021/07/14 04:53:09;;;;;;;3.70;3.37;;;17.20;99.80;;;;;;5016444;28;20532;-89
2021/07/14 04:55:39;;;;;;;3.63;3.33;;;17.20;99.80;;;;;;5011071;28;20982;-91
2021/07/14 04:58:07;;;;;;;4.30;3.60;;;17.20;99.80;;;;;;4999911;28;20468;-90
2021/07/14 05:00:35;;;;;;;3.33;3.03;;;17.20;99.80;;;;;;4965042;28;20477;-90
2021/07/14 05:03:04;;;;;;;4.07;3.67;;;17.30;99.80;;;;;;4993368;28;20486;-91
2021/07/14 05:05:32;;;;;;;3.63;3.27;;;17.30;99.80;;;;;;5017072;28;20475;-89
2021/07/14 05:08:01;;;;;;;3.30;3.03;;;17.40;99.80;;;;;;5010317;28;20500;-90
2021/07/14 05:10:31;;;;;;;4.73;3.63;;;17.40;99.80;;;;;;5000796;28;20490;-89
2021/07/14 05:12:59;;;;;;;5.03;3.00;;;17.50;99.80;;;;;;4995107;28;20579;-89
2021/07/14 05:15:28;;;;;;;3.57;3.27;;;17.50;99.80;;;;;;5000321;28;20472;-86
2021/07/14 05:17:56;;;;;;;3.10;2.90;;;17.50;99.80;;;;;;4990404;28;21882;-86
2021/07/14 05:20:24;;;;;;;5.10;3.60;;;17.50;99.80;;;;;;4996484;28;20483;-85
2021/07/14 05:22:52;;;;;;;3.43;3.13;;;17.50;99.80;;;;;;5003068;28;20481;-88
2021/07/14 05:25:21;;;;;;;5.57;3.23;;;17.50;99.80;;;;;;5000559;28;20465;-84
2021/07/14 05:27:49;;;;;;;3.00;2.80;;;17.40;99.80;;;;;;4982770;28;20469;-85
2021/07/14 05:30:18;;;;;;;4.10;3.00;;;17.40;99.80;;;;;;4999074;28;20468;-88
2021/07/14 05:32:46;;;;;;;4.00;3.60;;;17.40;99.80;;;;;;5000025;28;20475;-88
2021/07/14 05:35:14;;;;;;;5.13;2.90;;;17.40;99.80;;;;;;5004254;28;20475;-86
2021/07/14 05:37:42;;;;;;;4.13;3.13;;;;;;;;;;5003654;28;20483;-87
2021/07/14 05:40:11;;;;;;;4.80;3.33;;;17.40;99.80;;;;;;4999822;28;20476;-87
2021/07/14 05:42:41;;;;;;;2.83;2.63;;;17.40;99.80;;;;;;4997151;28;20489;-87
2021/07/14 05:45:10;;;;;;;2.70;2.50;;;17.40;99.80;;;;;;4996100;28;20518;-87
2021/07/14 05:47:38;;;;;;;2.60;2.40;;;17.50;99.80;;;;;;4978193;28;20473;-90
2021/07/14 05:50:07;;;;;;;5.23;2.93;;;17.50;99.80;;;;;;4985372;28;20495;-89
2021/07/14 05:52:35;;;;;;;4.77;2.40;;;17.50;99.80;;;;;;4967721;28;20477;-88
2021/07/14 05:55:04;;;;;;;5.67;2.80;;;17.60;99.80;;;;;;4976124;28;20477;-90
2021/07/14 05:57:33;;;;;;;3.83;3.00;;;17.60;99.80;;;;;;4987670;28;20472;-89
2021/07/14 06:00:03;;;;;;;4.07;3.40;;;17.60;99.80;;;;;;4971836;28;20978;-89
2021/07/14 06:02:31;;;;;;;9.03;3.27;;;17.60;99.80;;;;;;4968753;28;20487;-89
2021/07/14 06:05:00;;;;;;;3.43;3.13;;;17.50;99.80;;;;;;4992129;28;20483;-89
2021/07/14 06:07:28;;;;;;;3.00;2.80;;;17.50;99.80;;;;;;4993467;28;20560;-90
2021/07/14 06:09:56;;;;;;;8.30;2.73;;;;;;;;;;4983525;28;20986;-89
2021/07/14 06:12:24;;;;;;;3.23;2.93;;;17.60;99.80;;;;;;4985009;28;20569;-90
2021/07/14 06:14:52;;;;;;;3.33;2.60;;;17.70;99.80;;;;;;4989536;28;20476;-90
2021/07/14 06:17:21;;;;;;;3.20;2.90;;;17.70;99.80;;;;;;5007145;28;20610;-89
2021/07/14 06:19:50;;;;;;;3.37;3.07;;;;;;;;;;5006284;28;20539;-89
2021/07/14 06:22:18;;;;;;;3.13;2.90;;;17.60;99.80;;;;;;4999991;28;20479;-90
2021/07/14 06:24:46;;;;;;;4.50;3.10;;;17.60;99.80;;;;;;5007002;28;20476;-90
2021/07/14 06:27:30;;;;;;;4.00;3.07;;;17.60;99.80;;;;;;5003551;28;20468;-89
2021/07/14 06:29:58;;;;;;;2.97;2.77;;;17.60;99.80;;;;;;5009718;28;20502;-89
2021/07/14 06:32:32;;;;;;;3.43;2.70;;;17.50;99.80;;;;;;5004083;28;20470;-89
2021/07/14 06:35:01;;;;;;;3.03;2.80;;;17.50;99.80;;;;;;5015433;28;20471;-90
2021/07/14 06:37:29;;;;;;;4.30;3.03;;;;;;;;;;5019182;28;20468;-90
2021/07/14 06:39:57;;;;;;;3.13;2.60;;;17.50;99.80;;;;;;5020060;28;20472;-89
2021/07/14 06:42:25;;;;;;;4.43;3.00;;;17.60;99.80;;;;;;5003421;28;21002;-89
2021/07/14 06:44:53;;;;;;;3.90;3.03;;;17.70;99.80;;;;;;5011989;28;20477;-89
2021/07/14 06:47:21;;;;;;;5.17;2.97;;;17.80;99.80;;;;;;5014235;28;20479;-90
2021/07/14 06:49:51;;;;;;;2.50;2.30;;;17.80;99.80;;;;;;5016764;28;20456;-90
2021/07/14 06:52:19;;;;;;;5.10;3.30;;;17.90;99.80;;;;;;5010903;28;20535;-89
2021/07/14 06:54:47;;;;;;;2.87;2.63;;;17.90;99.80;;;;;;5007546;28;20476;-91
2021/07/14 06:57:15;;;;;;;3.23;3.03;;;17.80;99.80;;;;;;5009900;28;20483;-90
2021/07/14 06:59:44;;;;;;;3.73;2.90;;;17.70;99.80;;;;;;4998125;28;20515;-89
2021/07/14 07:02:12;;;;;;;4.10;3.10;;;17.70;99.80;;;;;;4974995;28;20596;-90
2021/07/14 07:04:40;;;;;;;4.80;4.03;;;17.70;99.80;;;;;;4993974;28;20508;-89
2021/07/14 07:07:11;;;;;;;3.20;3.00;;;17.70;99.80;;;;;;4986365;28;20568;-89
2021/07/14 07:09:39;;;;;;;4.10;3.67;;;17.80;99.80;;;;;;4990494;28;20484;-90
2021/07/14 07:12:07;;;;;;;7.03;3.53;;;17.90;99.80;;;;;;4995553;28;20556;-90
2021/07/14 07:14:35;;;;;;;5.40;3.47;;;18.00;99.80;;;;;;4991149;28;20513;-89
2021/07/14 07:17:04;;;;;;;3.40;3.20;;;18.10;99.80;;;;;;4986292;28;20890;-90
2021/07/14 07:19:32;;;;;;;4.63;3.27;;;18.10;99.80;;;;;;4986678;28;20966;-89
2021/07/14 07:22:00;;;;;;;13.13;3.10;;;18.20;99.80;;;;;;5001746;28;20492;-89
2021/07/14 07:24:30;;;;;;;5.87;3.73;;;18.30;99.80;;;;;;4982910;28;20525;-89
2021/07/14 07:26:59;;;;;;;4.00;3.60;;;18.30;99.80;;;;;;4990799;28;20488;-90
2021/07/14 07:29:28;;;;;;;5.63;3.80;;;18.40;99.80;;;;;;4973387;28;20482;-90
2021/07/14 07:31:56;;;;;;;3.43;3.23;;;18.50;99.80;;;;;;4988041;28;20476;-90
2021/07/14 07:34:25;;;;;;;3.93;3.63;;;18.40;99.80;;;;;;4980856;28;20561;-90
2021/07/14 07:36:53;;;;;;;5.00;3.27;;;18.30;99.80;;;;;;4975467;28;20469;-89
2021/07/14 07:39:23;;;;;;;4.83;3.40;;;18.20;99.80;;;;;;4986785;28;20482;-90
2021/07/14 07:41:53;;;;;;;4.83;3.50;;;18.10;99.80;;;;;;4989364;28;20841;-89
2021/07/14 07:44:21;;;;;;;3.50;3.20;;;;;;;;;;4982613;28;20476;-89
2021/07/14 07:46:49;;;;;;;3.47;2.97;;;18.00;99.80;;;;;;4989480;28;21010;-89
2021/07/14 07:49:18;;;;;;;3.83;3.50;;;18.00;99.80;;;;;;4992345;28;20473;-90
2021/07/14 07:51:46;;;;;;;5.30;3.77;;;;;;;;;;4989533;28;20481;-90
2021/07/14 07:54:15;;;;;;;3.90;3.60;;;18.00;99.80;;;;;;4983076;28;20862;-90
2021/07/14 07:56:43;;;;;;;7.57;3.40;;;18.00;99.80;;;;;;4976773;28;20545;-90
2021/07/14 07:59:13;;;;;;;3.50;3.20;;;18.00;99.80;;;;;;4982717;28;20552;-89
2021/07/14 08:01:41;;;;;;;3.73;3.33;;;17.90;99.80;;;;;;4974501;28;20501;-90
2021/07/14 08:04:09;;;;;;;5.20;3.27;;;18.00;99.80;;;;;;4976847;28;20496;-89
2021/07/14 08:06:37;;;;;;;5.43;3.40;;;17.90;99.80;;;;;;4983013;28;20461;-90
2021/07/14 08:09:06;;;;;;;5.70;3.67;;;17.80;99.80;;;;;;4978136;28;20492;-90
2021/07/14 08:11:35;;;;;;;3.83;3.27;;;17.80;99.80;;;;;;4987181;28;20560;-90
2021/07/14 08:14:03;;;;;;;4.97;3.13;;;17.90;99.80;;;;;;4990229;28;20509;-89
2021/07/14 08:16:33;;;;;;;5.33;3.83;;;17.80;99.80;;;;;;4990867;28;20564;-90
2021/07/14 08:19:01;;;;;;;4.53;3.70;;;17.90;99.80;;;;;;4989583;28;20477;-89
2021/07/14 08:21:29;;;;;;;5.07;3.77;;;17.90;99.80;;;;;;4995949;28;20930;-89
2021/07/14 08:23:57;;;;;;;4.37;3.77;;;17.90;99.80;;;;;;4991558;28;20476;-90
2021/07/14 08:26:26;;;;;;;3.67;3.37;;;;;;;;;;4986710;28;20500;-89
2021/07/14 08:28:54;;;;;;;3.77;2.73;;;17.80;99.80;;;;;;4988915;28;20550;-90
2021/07/14 08:31:23;;;;;;;3.70;3.13;;;17.80;99.80;;;;;;4993332;28;20532;-90
2021/07/14 08:33:52;;;;;;;5.47;3.90;;;17.80;99.80;;;;;;4990346;28;20482;-89
2021/07/14 08:36:20;;;;;;;5.93;3.60;;;17.80;99.80;;;;;;4991782;28;20487;-90
2021/07/14 08:38:48;;;;;;;4.60;3.57;;;17.70;99.80;;;;;;4986084;28;20504;-90
2021/07/14 08:41:19;;;;;;;6.73;3.87;;;17.70;99.80;;;;;;4992063;28;20564;-89
2021/07/14 08:43:49;;;;;;;3.90;3.20;;;17.70;99.80;;;;;;4986283;28;20495;-90
2021/07/14 08:46:17;;;;;;;4.10;3.17;;;17.70;99.80;;;;;;4987936;28;20528;-89
2021/07/14 08:48:46;;;;;;;4.10;3.70;;;17.70;99.80;;;;;;4993901;28;20472;-89
2021/07/14 08:51:16;;;;;;;5.73;4.10;;;17.70;99.80;;;;;;4997304;28;20544;-89
2021/07/14 08:53:48;;;;;;;4.33;3.80;;;17.60;99.80;;;;;;4996411;28;20551;-90
2021/07/14 08:56:16;;;;;;;4.87;4.20;;;17.60;99.80;;;;;;4992092;28;20480;-89
2021/07/14 08:58:44;;;;;;;4.17;3.87;;;17.60;99.80;;;;;;4978951;28;20473;-90
2021/07/14 09:01:13;;;;;;;4.50;4.10;;;17.60;99.80;;;;;;4978471;28;20488;-89
2021/07/14 09:03:41;;;;;;;5.27;3.70;;;17.60;99.80;;;;;;4997335;28;20481;-89
2021/07/14 09:06:09;;;;;;;5.00;3.97;;;17.60;99.80;;;;;;4990735;28;20563;-89
2021/07/14 09:08:38;;;;;;;7.60;4.33;;;17.60;99.80;;;;;;4987189;28;20537;-89
2021/07/14 09:11:07;;;;;;;8.03;3.90;;;17.60;99.80;;;;;;4985080;28;20852;-89
2021/07/14 09:13:37;;;;;;;5.30;4.33;;;17.60;99.80;;;;;;4971015;28;20557;-90
2021/07/14 09:16:06;;;;;;;9.10;4.37;;;17.60;99.80;;;;;;4987570;28;20540;-89
2021/07/14 09:18:35;;;;;;;4.23;3.90;;;17.70;99.80;;;;;;4986753;28;20496;-89
2021/07/14 09:21:16;;;;;;;5.30;4.90;;;17.70;99.80;;;;;;4984634;28;20480;-90
2021/07/14 09:23:46;;;;;;;4.60;4.10;;;17.70;99.80;;;;;;4978153;28;20496;-90
2021/07/14 09:26:14;;;;;;;5.63;4.47;;;17.70;99.80;;;;;;4976565;28;20497;-89
2021/07/14 09:28:42;;;;;;;5.73;4.63;;;17.70;99.80;;;;;;4985153;28;21187;-90
2021/07/14 09:31:13;;;;;;;4.87;4.37;;;17.70;99.80;;;;;;4986524;28;20502;-90
2021/07/14 09:33:43;;;;;;;5.40;3.90;;;17.70;99.80;;;;;;4985459;28;20505;-89
2021/07/14 09:36:12;;;;;;;4.70;4.20;;;17.70;99.80;;;;;;4990194;28;20859;-89
2021/07/14 09:38:40;;;;;;;7.13;4.03;;;17.70;99.80;;;;;;4987440;28;20552;-89
2021/07/14 09:41:12;;;;;;;4.50;4.10;;;17.60;99.80;;;;;;4987855;28;20473;-90
2021/07/14 09:43:42;;;;;;;8.03;4.83;;;17.70;99.80;;;;;;4981877;28;20849;-89
2021/07/14 09:46:11;;;;;;;4.93;3.83;;;17.70;99.80;;;;;;4968460;28;20898;-88
2021/07/14 09:48:41;;;;;;;4.37;3.97;;;17.80;99.80;;;;;;4985531;28;20588;-90
2021/07/14 09:51:12;;;;;;;4.73;4.30;;;18.00;99.80;;;;;;4976228;28;20508;-90
2021/07/14 09:53:42;;;;;;;4.27;3.87;;;18.20;99.80;;;;;;4985245;28;20485;-89
2021/07/14 09:56:15;;;;;;;4.27;3.87;;;18.40;99.80;;;;;;4985336;28;20482;-89
2021/07/14 09:58:44;;;;;;;4.47;3.60;;;18.50;99.80;;;;;;4966436;28;20932;-89
2021/07/14 10:01:15;;;;;;;7.00;4.40;;;18.60;99.80;;;;;;4982246;28;20560;-90
2021/07/14 10:03:51;;;;;;;6.97;3.73;;;18.60;99.80;;;;;;4979267;28;20477;-89
2021/07/14 10:06:20;;;;;;;4.33;4.03;;;18.60;99.80;;;;;;4991835;28;20505;-90
2021/07/14 10:08:50;;;;;;;4.53;3.93;;;18.70;99.80;;;;;;4993130;28;20552;-89
2021/07/14 10:11:22;;;;;;;3.93;3.30;;;18.80;99.80;;;;;;4986141;28;20477;-89
2021/07/14 10:14:00;;;;;;;4.00;3.20;;;18.80;99.80;;;;;;4986622;28;20482;-89
2021/07/14 10:16:30;;;;;;;3.63;3.33;;;18.80;99.80;;;;;;4990045;28;21034;-89
2021/07/14 10:19:05;;;;;;;10.00;3.47;;;18.80;99.80;;;;;;5009688;28;20477;-90
2021/07/14 10:21:35;;;;;;;3.30;3.00;;;18.80;99.80;;;;;;5008456;28;20475;-89
2021/07/14 10:24:04;;;;;;;3.00;2.80;;;18.80;99.80;;;;;;5007838;28;20479;-89
2021/07/14 10:26:36;;;;;;;4.63;3.10;;;18.80;99.80;;;;;;5008764;28;20484;-89
2021/07/14 10:29:05;;;;;;;3.20;3.00;;;18.90;99.80;;;;;;5004229;28;20491;-89
2021/07/14 10:31:35;;;;;;;6.43;3.03;;;18.90;99.80;;;;;;4999207;28;20998;-89
2021/07/14 10:34:05;;;;;;;3.13;2.83;;;18.90;99.80;;;;;;5003602;28;20473;-89
2021/07/14 10:36:35;;;;;;;7.10;4.43;;;18.80;99.80;;;;;;5011600;28;20468;-89
2021/07/14 10:39:07;;;;;;;4.80;2.90;;;18.80;99.80;;;;;;5006877;28;20979;-88
2021/07/14 10:41:37;;;;;;;3.70;3.40;;;18.80;99.80;;;;;;4998183;28;20913;-90
2021/07/14 10:44:06;;;;;;;3.27;2.87;;;18.70;99.80;;;;;;4989525;28;20507;-89
2021/07/14 10:46:39;;;;;;;5.37;3.83;;;18.70;99.80;;;;;;4983375;28;20844;-89
2021/07/14 10:49:09;;;;;;;4.17;3.30;;;18.70;99.80;;;;;;5004990;28;20473;-89
2021/07/14 10:51:39;;;;;;;4.60;4.20;;;18.70;99.80;;;;;;5004475;28;20513;-89
2021/07/14 10:54:10;;;;;;;6.60;3.80;;;18.70;99.80;;;;;;4991794;28;20544;-92
2021/07/14 10:56:45;;;;;;;5.93;4.57;;;18.70;99.80;;;;;;4981822;28;21257;-89
2021/07/14 10:59:22;;;;;;;4.80;4.40;;;18.70;99.80;;;;;;4984002;28;20547;-89
2021/07/14 11:01:51;;;;;;;7.50;4.60;;;18.70;99.80;;;;;;4970649;28;20540;-88
2021/07/14 11:04:54;;;;;;;7.63;4.60;;;18.60;99.80;;;;;;5020256;28;20460;-89
2021/07/14 11:07:40;;;;;;;6.80;5.33;;;18.50;99.80;;;;;;5007034;28;20506;-88
2021/07/14 11:10:30;;;;;;;5.20;4.03;;;18.50;99.80;;;;;;5015784;28;20552;-88
2021/07/14 11:13:02;;;;;;;10.53;4.60;;;18.50;99.80;;;;;;5017247;28;20472;-88
2021/07/14 11:15:35;;;;;;;5.53;4.40;;;18.40;99.80;;;;;;5004444;28;20555;-89
2021/07/14 11:18:35;;;;;;;5.50;3.60;;;18.40;99.80;;;;;;5008786;28;20501;-89
2021/07/14 11:21:04;;;;;;;4.73;3.70;;;18.50;99.80;;;;;;5014812;28;20555;-89
2021/07/14 11:23:32;;;;;;;6.00;4.77;;;18.50;99.80;;;;;;5013461;28;20491;-88
2021/07/14 11:26:02;;;;;;;8.83;4.50;;;18.50;99.80;;;;;;5004133;28;20913;-89
2021/07/14 11:28:33;;;;;;;4.67;4.27;;;18.50;99.80;;;;;;5005348;28;20481;-89
2021/07/14 11:31:11;;;;;;;5.60;4.37;;;18.50;99.80;;;;;;4998464;28;20877;-89
2021/07/14 11:33:49;;;;;;;5.57;5.07;;;18.50;99.80;;;;;;5003099;28;20496;-89
2021/07/14 11:36:17;;;;;;;5.43;4.50;;;18.50;99.80;;;;;;5000409;28;20484;-89
2021/07/14 11:38:48;;;;;;;4.37;4.00;;;18.50;99.80;;;;;;5009443;28;20854;-89
2021/07/14 11:41:35;;;;;;;5.37;4.40;;;18.40;99.80;;;;;;5009776;28;20472;-89
2021/07/14 11:44:05;;;;;;;5.53;4.63;;;18.30;99.80;;;;;;5009266;28;20559;-89
2021/07/14 11:46:37;;;;;;;5.50;5.00;;;18.30;99.80;;;;;;5011072;28;20552;-89
2021/07/14 11:49:07;;;;;;;5.13;4.63;;;18.20;99.80;;;;;;5015720;28;20477;-89
2021/07/14 11:51:37;;;;;;;4.67;4.27;;;18.10;99.80;;;;;;5017099;28;20556;-90
2021/07/14 11:54:21;;;;;;;5.30;4.80;;;18.10;99.80;;;;;;5024005;28;20476;-90
2021/07/14 11:56:51;;;;;;;9.07;5.33;;;18.10;99.80;;;;;;5012666;28;20470;-91
2021/07/14 11:59:26;;;;;;;5.60;5.00;;;18.10;99.80;;;;;;5002600;28;20477;-89
2021/07/14 12:02:00;;;;;;;9.80;5.30;;;18.10;99.80;;;;;;4999855;28;21182;-91
2021/07/14 12:04:32;;;;;;;6.93;4.83;;;18.10;99.80;;;;;;5012559;28;20534;-90
2021/07/14 12:07:16;;;;;;;7.33;5.20;;;18.10;99.80;;;;;;5003356;28;20488;-91
2021/07/14 12:09:47;;;;;;;7.07;5.30;;;18.20;99.80;;;;;;4995220;28;20479;-90
2021/07/14 12:12:22;;;;;;;5.13;4.63;;;18.30;99.80;;;;;;4995081;28;20561;-91
2021/07/14 12:14:55;;;;;;;5.60;4.53;;;18.30;99.80;;;;;;4985883;28;21130;-90
2021/07/14 12:17:26;;;;;;;6.40;4.13;;;18.50;99.80;;;;;;4996863;28;20465;-91
2021/07/14 12:19:57;;;;;;;4.50;4.10;;;18.60;99.80;;;;;;5014063;28;20477;-91
2021/07/14 12:22:27;;;;;;;6.40;5.07;;;18.60;99.80;;;;;;5009855;28;20501;-93
2021/07/14 12:24:56;;;;;;;4.43;4.03;;;18.60;99.80;;;;;;5013576;28;20988;-92
2021/07/14 12:27:27;;;;;;;5.10;4.60;;;18.60;99.80;;;;;;5009454;28;20556;-91
2021/07/14 12:29:58;;;;;;;5.90;5.30;;;18.60;99.80;;;;;;4972755;28;20483;-91
2021/07/14 12:32:35;;;;;;;5.20;4.80;;;18.60;99.80;;;;;;5004470;28;20484;-92
2021/07/14 12:35:07;;;;;;;6.47;4.57;;;18.60;99.80;;;;;;5000485;28;20557;-91
2021/07/14 12:37:41;;;;;;;5.70;4.37;;;18.80;99.80;;;;;;5001924;28;20498;-91
2021/07/14 12:40:12;;;;;;;4.83;4.40;;;19.00;99.80;;;;;;5001485;28;20464;-90
2021/07/14 12:42:46;;;;;;;6.77;5.10;;;19.20;99.80;;;;;;4989974;28;20480;-91
2021/07/14 12:45:24;;;;;;;6.73;5.00;;;19.30;99.80;;;;;;4992279;28;20478;-93
2021/07/14 12:47:53;;;;;;;5.10;4.50;;;19.50;99.80;;;;;;4995958;28;20596;-91
2021/07/14 12:50:23;;;;;;;5.30;4.90;;;19.90;99.80;;;;;;5010382;28;20473;-92
2021/07/14 12:52:52;;;;;;;5.17;4.47;;;20.50;99.80;;;;;;5002827;28;20912;-90
2021/07/14 12:55:22;;;;;;;7.47;4.30;;;;;;;;;;5009818;28;20473;-90
2021/07/14 12:57:51;;;;;;;5.47;4.97;;;21.00;99.80;;;;;;5008256;28;20484;-90
2021/07/14 13:00:22;;;;;;;4.80;4.40;;;20.90;99.80;;;;;;4984230;28;20473;-90
2021/07/14 13:02:56;;;;;;;4.87;4.40;;;20.80;99.80;;;;;;5002887;28;20479;-91
2021/07/14 13:05:28;;;;;;;4.80;4.40;;;20.70;99.80;;;;;;5012436;28;20544;-90
2021/07/14 13:07:59;;;;;;;5.77;4.57;;;20.70;99.80;;;;;;5009177;28;20504;-90
2021/07/14 13:10:28;;;;;;;6.23;4.50;;;20.80;99.80;;;;;;4992509;28;20504;-90
2021/07/14 13:12:57;;;;;;;6.17;4.20;;;21.00;99.80;;;;;;5003411;28;20926;-91
2021/07/14 13:15:27;;;;;;;3.90;3.57;;;21.10;99.80;;;;;;5008842;28;20473;-91
2021/07/14 13:18:05;;;;;;;3.70;3.40;;;20.90;99.80;;;;;;4978862;28;20502;-90